Fairpartner — PHEC — position and weather

sailwx.info

Track history (hours):
 
Tides and Currents Weather Stations Pressure Air Temp Water Temp Dewpoint Dewpoint Depression Visibility Wind Speed Wind Dir Waves Ship Positions

Fairpartner

Last reported at 2015-Dec-15 06:32 UTC. Time now 2016-Feb-13 04:35 UTC.
Position S 33°50' E 027°29'.
Warning: this ship's position is 59 days out of date.

Length 143 m; beam 27 m.

Type: Cargo ship. MMSI: 246466992.

Date/timePositionNaut miles runAvg speedWind from/ knotsBaromVisibWave heightAir tempDewpointWater temp
2015-Dec-15 06:32S 33°50' E 027°29'27514.3
2015-Dec-14 11:15S 30°23' E 031°02'912.5
2015-Dec-14 10:33S 30°14' E 031°03'1211.6
2015-Dec-14 09:34S 30°03' E 031°04'1211.6
2015-Dec-14 08:34S 29°51' E 031°05'3 2.9
2015-Dec-14 07:32S 29°52' E 031°02'0 0.0
2015-Dec-14 06:32S 29°52' E 031°02'0 0.0
2015-Dec-14 05:32S 29°52' E 031°02'0 0.0
2015-Dec-14 04:33S 29°52' E 031°02'0 0.0
2015-Dec-14 03:33S 29°52' E 031°02'0 0.0
2015-Dec-14 02:33S 29°52' E 031°02'0 0.0
2015-Dec-14 01:33S 29°52' E 031°02'0 0.0
2015-Dec-14 00:33S 29°52' E 031°02'0 0.0
2015-Dec-13 23:33S 29°52' E 031°02'0 0.0
2015-Dec-13 22:33S 29°52' E 031°02'0 0.0
2015-Dec-13 21:33S 29°52' E 031°02'1 0.7
2015-Dec-13 20:33S 29°52' E 031°02'5 4.9
2015-Dec-13 19:33S 29°49' E 031°06'7 7.1
2015-Dec-13 18:33S 29°46' E 031°13'4 3.5
2015-Dec-13 17:33S 29°49' E 031°12'6 5.6
2015-Dec-13 16:33S 29°45' E 031°16'1 0.6
2015-Dec-13 15:33S 29°45' E 031°16'5 5.2
2015-Dec-13 14:33S 29°48' E 031°12'1312.7
2015-Dec-13 13:33S 29°44' E 031°25'1212.1
2015-Dec-13 12:33S 29°39' E 031°38'1211.8
2015-Dec-13 11:33S 29°36' E 031°51'  
2015-Dec-09 04:32S 20°38' E 057°49'1814.4
2015-Dec-09 03:19S 20°28' E 058°05'  
Track history (hours):
 
Tides and Currents Weather Stations Pressure Air Temp Water Temp Dewpoint Dewpoint Depression Visibility Wind Speed Wind Dir Waves Ship Positions

Fairpartner

Last reported at 2015-Dec-15 06:32 UTC. Time now 2016-Feb-13 04:35 UTC.
Position S 33°50' E 027°29'.
Warning: this ship's position is 59 days out of date.

Length 143 m; beam 27 m.

Type: Cargo ship. MMSI: 246466992.

Date/timePositionNaut miles runAvg speedWind from/ knotsBaromVisibWave heightAir tempDewpointWater temp
2015-Dec-15 06:32S 33°50' E 027°29'27514.3
2015-Dec-14 11:15S 30°23' E 031°02'912.5
2015-Dec-14 10:33S 30°14' E 031°03'1211.6
2015-Dec-14 09:34S 30°03' E 031°04'1211.6
2015-Dec-14 08:34S 29°51' E 031°05'3 2.9
2015-Dec-14 07:32S 29°52' E 031°02'0 0.0
2015-Dec-14 06:32S 29°52' E 031°02'0 0.0
2015-Dec-14 05:32S 29°52' E 031°02'0 0.0
2015-Dec-14 04:33S 29°52' E 031°02'0 0.0
2015-Dec-14 03:33S 29°52' E 031°02'0 0.0
2015-Dec-14 02:33S 29°52' E 031°02'0 0.0
2015-Dec-14 01:33S 29°52' E 031°02'0 0.0
2015-Dec-14 00:33S 29°52' E 031°02'0 0.0
2015-Dec-13 23:33S 29°52' E 031°02'0 0.0
2015-Dec-13 22:33S 29°52' E 031°02'0 0.0
2015-Dec-13 21:33S 29°52' E 031°02'1 0.7
2015-Dec-13 20:33S 29°52' E 031°02'5 4.9
2015-Dec-13 19:33S 29°49' E 031°06'7 7.1
2015-Dec-13 18:33S 29°46' E 031°13'4 3.5
2015-Dec-13 17:33S 29°49' E 031°12'6 5.6
2015-Dec-13 16:33S 29°45' E 031°16'1 0.6
2015-Dec-13 15:33S 29°45' E 031°16'5 5.2
2015-Dec-13 14:33S 29°48' E 031°12'1312.7
2015-Dec-13 13:33S 29°44' E 031°25'1212.1
2015-Dec-13 12:33S 29°39' E 031°38'1211.8
2015-Dec-13 11:33S 29°36' E 031°51'  
2015-Dec-09 04:32S 20°38' E 057°49'1814.4
2015-Dec-09 03:19S 20°28' E 058°05'  

Dump ship's entire track history